Smit Clyde — CFG7577 — position and weather

sailwx.info

Track history (hours):
 
Tides and Currents Weather Stations Pressure Air Temp Water Temp Dewpoint Dewpoint Depression Visibility Wind Speed Wind Dir Waves Ship Positions

Smit Clyde

Last reported at 2017-Oct-20 07:00 UTC. Time now 2017-Oct-20 07:16 UTC.
Position N 54°18' W 130°21'.

Length 28 m; draft 6 m.

Type: Towing. MMSI: 316011473.

Date/timePositionNaut miles runAvg speedWind from/ knotsBaromVisibWave heightAir tempDewpointWater temp
2017-Oct-20 07:00N 54°18' W 130°21'0 0.0
2017-Oct-20 06:29N 54°18' W 130°21'0 0.0
2017-Oct-20 06:00N 54°18' W 130°21'0 0.0
2017-Oct-20 05:29N 54°18' W 130°21'0 0.0
2017-Oct-20 05:00N 54°18' W 130°21'0 0.0
2017-Oct-20 04:30N 54°18' W 130°21'0 0.0
2017-Oct-20 04:00N 54°18' W 130°21'0 0.0
2017-Oct-20 03:30N 54°18' W 130°21'0 0.0
2017-Oct-20 03:00N 54°18' W 130°21'0 0.0
2017-Oct-20 02:30N 54°18' W 130°21'0 0.0
2017-Oct-20 02:00N 54°18' W 130°21'0 0.0
2017-Oct-20 01:30N 54°18' W 130°21'0 0.0
2017-Oct-20 01:00N 54°18' W 130°21'0 0.0
2017-Oct-20 00:30N 54°18' W 130°21'0 0.0
2017-Oct-20 00:00N 54°18' W 130°21'0 0.0
2017-Oct-19 23:30N 54°18' W 130°21'0 0.0
2017-Oct-19 23:00N 54°18' W 130°21'0 0.0
2017-Oct-19 22:30N 54°18' W 130°21'0 0.0
2017-Oct-19 21:59N 54°18' W 130°21'0 0.0
2017-Oct-19 21:31N 54°18' W 130°21'0 0.0
2017-Oct-19 20:58N 54°18' W 130°21'0 0.0
2017-Oct-19 20:30N 54°18' W 130°21'0 0.0
2017-Oct-19 19:59N 54°18' W 130°21'0 0.0
2017-Oct-19 19:30N 54°18' W 130°21'0 0.0
2017-Oct-19 19:00N 54°18' W 130°21'0 0.0
2017-Oct-19 18:30N 54°18' W 130°21'0 0.0
2017-Oct-19 18:00N 54°18' W 130°21'0 0.0
2017-Oct-19 17:30N 54°18' W 130°21'0 0.0
2017-Oct-19 17:00N 54°18' W 130°21'0 0.0
2017-Oct-19 16:30N 54°18' W 130°21'0 0.0
2017-Oct-19 16:00N 54°18' W 130°21'0 0.0
2017-Oct-19 15:30N 54°18' W 130°21'0 0.0
2017-Oct-19 15:00N 54°18' W 130°21'0 0.0
2017-Oct-19 14:30N 54°18' W 130°21'0 0.0
2017-Oct-19 14:00N 54°18' W 130°21'0 0.0
2017-Oct-19 13:30N 54°18' W 130°21'0 0.0
2017-Oct-19 13:00N 54°18' W 130°21'0 0.0
2017-Oct-19 12:30N 54°18' W 130°21'0 0.0
2017-Oct-19 12:00N 54°18' W 130°21'0 0.0
2017-Oct-19 11:30N 54°18' W 130°21'0 0.0
2017-Oct-19 11:00N 54°18' W 130°21'0 0.0
2017-Oct-19 10:30N 54°18' W 130°21'0 0.0
2017-Oct-19 10:00N 54°18' W 130°21'0 0.0
2017-Oct-19 09:30N 54°18' W 130°21'0 0.0
2017-Oct-19 09:00N 54°18' W 130°21'0 0.0
2017-Oct-19 08:30N 54°18' W 130°21'0 0.0
2017-Oct-19 08:00N 54°18' W 130°21'0 0.0
2017-Oct-19 07:30N 54°18' W 130°21'0 0.0
2017-Oct-19 07:00N 54°18' W 130°21'0 0.0
2017-Oct-19 06:30N 54°18' W 130°21'0 0.0
2017-Oct-19 06:00N 54°18' W 130°21'0 0.0
2017-Oct-19 05:28N 54°18' W 130°21'0 0.0
2017-Oct-19 05:00N 54°18' W 130°21'0 0.0
2017-Oct-19 04:30N 54°18' W 130°21'0 0.0
2017-Oct-19 04:00N 54°18' W 130°21'0 0.0
2017-Oct-19 03:30N 54°18' W 130°21'0 0.0
2017-Oct-19 03:00N 54°18' W 130°21'0 0.0
2017-Oct-19 02:30N 54°18' W 130°21'0 0.0
2017-Oct-19 02:00N 54°18' W 130°21'0 0.0
2017-Oct-19 01:30N 54°18' W 130°21'0 0.0
2017-Oct-19 01:00N 54°18' W 130°21'0 0.0
2017-Oct-19 00:30N 54°18' W 130°21'0 0.0
2017-Oct-19 00:00N 54°18' W 130°21'0 0.0
2017-Oct-18 23:30N 54°18' W 130°21'0 0.0
2017-Oct-18 23:00N 54°18' W 130°21'0 0.0
2017-Oct-18 22:30N 54°18' W 130°21'0 0.6
2017-Oct-18 22:00N 54°17' W 130°22'4 7.1
2017-Oct-18 21:31N 54°14' W 130°22'2 4.1
2017-Oct-18 21:00N 54°12' W 130°23'5 9.8
2017-Oct-18 20:30N 54°17' W 130°22'1 1.8
2017-Oct-18 20:00N 54°18' W 130°21'0 0.0
2017-Oct-18 19:29N 54°18' W 130°21'0 0.0
2017-Oct-18 19:00N 54°18' W 130°21'0 0.0
2017-Oct-18 18:30N 54°18' W 130°21'0 0.0
2017-Oct-18 18:00N 54°18' W 130°21'0 0.0
2017-Oct-18 17:30N 54°18' W 130°21'0 0.0
2017-Oct-18 17:00N 54°18' W 130°21'0 0.0
2017-Oct-18 16:30N 54°18' W 130°21'0 0.0
2017-Oct-18 16:00N 54°18' W 130°21'0 0.0
2017-Oct-18 15:30N 54°18' W 130°21'0 0.0
2017-Oct-18 15:00N 54°18' W 130°21'0 0.0
2017-Oct-18 14:00N 54°18' W 130°21'0 0.0
2017-Oct-18 13:29N 54°18' W 130°21'0 0.0
2017-Oct-18 13:00N 54°18' W 130°21'0 0.0
2017-Oct-18 12:30N 54°18' W 130°21'0 0.0
2017-Oct-18 12:00N 54°18' W 130°21'0 0.0
2017-Oct-18 11:30N 54°18' W 130°21'0 0.0
2017-Oct-18 11:00N 54°18' W 130°21'0 0.0
2017-Oct-18 10:30N 54°18' W 130°21'0 0.0
2017-Oct-18 10:00N 54°18' W 130°21'0 0.0
2017-Oct-18 09:30N 54°18' W 130°21'0 0.0
2017-Oct-18 09:00N 54°18' W 130°21'0 0.0
2017-Oct-18 08:30N 54°18' W 130°21'0 0.0
2017-Oct-18 08:00N 54°18' W 130°21'0 0.0
2017-Oct-18 07:29N 54°18' W 130°21'0 0.0
2017-Oct-18 07:00N 54°18' W 130°21'0 0.0
2017-Oct-18 06:30N 54°18' W 130°21'0 0.0
2017-Oct-18 06:00N 54°18' W 130°21'0 0.0
2017-Oct-18 05:30N 54°18' W 130°21'0 0.0
2017-Oct-18 05:00N 54°18' W 130°21'0 0.0
2017-Oct-18 04:30N 54°18' W 130°21'0 0.0
2017-Oct-18 04:00N 54°18' W 130°21'0 0.0
2017-Oct-18 03:30N 54°18' W 130°21'0 0.0
2017-Oct-18 03:00N 54°18' W 130°21'0 0.0
2017-Oct-18 02:30N 54°18' W 130°21'0 0.0
2017-Oct-18 02:00N 54°18' W 130°21'0 0.0
2017-Oct-18 01:30N 54°18' W 130°21'0 0.0
2017-Oct-18 01:00N 54°18' W 130°21'0 0.0
2017-Oct-18 00:29N 54°18' W 130°21'0 0.0
2017-Oct-18 00:00N 54°18' W 130°21'0 0.0
2017-Oct-17 23:30N 54°18' W 130°21'0 0.0
2017-Oct-17 23:00N 54°18' W 130°21'0 0.0
2017-Oct-17 22:30N 54°18' W 130°21'0 0.0
2017-Oct-17 22:00N 54°18' W 130°21'0 0.0
2017-Oct-17 21:30N 54°18' W 130°21'0 0.0
2017-Oct-17 21:00N 54°18' W 130°21'0 0.0
2017-Oct-17 20:30N 54°18' W 130°21'0 0.0
2017-Oct-17 20:01N 54°18' W 130°21'0 0.0
2017-Oct-17 19:30N 54°18' W 130°21'0 0.0
2017-Oct-17 19:00N 54°18' W 130°21'0 0.0
2017-Oct-17 18:27N 54°18' W 130°21'0 0.0
2017-Oct-17 18:00N 54°18' W 130°21'0 0.0
2017-Oct-17 17:30N 54°18' W 130°21'0 0.0
2017-Oct-17 16:59N 54°18' W 130°21'0 0.0
2017-Oct-17 16:30N 54°18' W 130°21'0 0.0
2017-Oct-17 16:01N 54°18' W 130°21'0 0.0
2017-Oct-17 15:13N 54°18' W 130°21'0 0.0
2017-Oct-17 15:00N 54°18' W 130°21'0 0.0
2017-Oct-17 14:30N 54°18' W 130°21'0 0.0
2017-Oct-17 14:00N 54°18' W 130°21'0 0.0
2017-Oct-17 13:30N 54°18' W 130°21'0 0.0
2017-Oct-17 13:00N 54°18' W 130°21'0 0.0
2017-Oct-17 12:30N 54°18' W 130°21'0 0.0
2017-Oct-17 12:01N 54°18' W 130°21'0 0.0
2017-Oct-17 11:31N 54°18' W 130°21'0 0.0
2017-Oct-17 11:00N 54°18' W 130°21'0 0.0
2017-Oct-17 10:15N 54°18' W 130°21'0 0.0
2017-Oct-17 09:58N 54°18' W 130°21'0 0.0
2017-Oct-17 09:30N 54°18' W 130°21'0 0.0
2017-Oct-17 09:00N 54°18' W 130°21'0 0.0
2017-Oct-17 08:29N 54°18' W 130°21'0 0.0
2017-Oct-17 07:58N 54°18' W 130°21'0 0.0
2017-Oct-17 07:30N 54°18' W 130°21'0 0.0
2017-Oct-17 07:00N 54°18' W 130°21'0 0.0
2017-Oct-17 06:30N 54°18' W 130°21'0 0.0
2017-Oct-17 06:00N 54°18' W 130°21'0 0.0
2017-Oct-17 05:19N 54°18' W 130°21'0 0.0
2017-Oct-17 04:59N 54°18' W 130°21'0 0.0
2017-Oct-17 04:24N 54°18' W 130°21'0 0.0
2017-Oct-17 04:00N 54°18' W 130°21'0 0.0
2017-Oct-17 03:30N 54°18' W 130°21'0 0.0
2017-Oct-17 03:00N 54°18' W 130°21'0 0.0
2017-Oct-17 02:30N 54°18' W 130°21'0 0.0
2017-Oct-17 02:00N 54°18' W 130°21'0 0.0
2017-Oct-17 01:22N 54°18' W 130°21'0 0.0
2017-Oct-17 01:00N 54°18' W 130°21'0 0.0
2017-Oct-17 00:30N 54°18' W 130°21'0 0.0
2017-Oct-17 00:00N 54°18' W 130°21'0 0.0
2017-Oct-16 23:30N 54°18' W 130°21'0 0.0
2017-Oct-16 23:00N 54°18' W 130°21'0 0.0
2017-Oct-16 21:56N 54°18' W 130°21'0 0.0
2017-Oct-16 21:30N 54°18' W 130°21'0 0.0
2017-Oct-16 21:00N 54°18' W 130°21'0 0.0
2017-Oct-16 19:52N 54°18' W 130°21'0 0.0
2017-Oct-16 19:30N 54°18' W 130°21'0 0.0
2017-Oct-16 19:00N 54°18' W 130°21'0 0.0
2017-Oct-16 17:47N 54°18' W 130°21'0 0.0
2017-Oct-16 17:13N 54°18' W 130°21'0 0.0
2017-Oct-16 16:53N 54°18' W 130°21'0 0.1
2017-Oct-16 16:30N 54°18' W 130°21'0 0.1
2017-Oct-16 16:00N 54°18' W 130°21'0 0.0
2017-Oct-16 15:29N 54°18' W 130°21'0 0.0
2017-Oct-16 14:43N 54°18' W 130°21'0 0.0
2017-Oct-16 14:26N 54°18' W 130°21'0 0.0
2017-Oct-16 13:30N 54°18' W 130°21'0 0.0
2017-Oct-16 13:00N 54°18' W 130°21'0 0.0
2017-Oct-16 12:30N 54°18' W 130°21'0 0.0
2017-Oct-16 12:00N 54°18' W 130°21'0 0.0
2017-Oct-16 11:30N 54°18' W 130°21'0 0.0
2017-Oct-16 11:00N 54°18' W 130°21'0 0.0
2017-Oct-16 10:30N 54°18' W 130°21'0 0.0
2017-Oct-16 10:00N 54°18' W 130°21'0 0.0
2017-Oct-16 09:28N 54°18' W 130°21'0 0.0
2017-Oct-16 09:00N 54°18' W 130°21'0 0.0
2017-Oct-16 08:31N 54°18' W 130°21'0 0.0
2017-Oct-16 08:00N 54°18' W 130°21'0 0.0
2017-Oct-16 07:30N 54°18' W 130°21'0 0.0
2017-Oct-16 07:00N 54°18' W 130°21'0 0.0
2017-Oct-16 06:30N 54°18' W 130°21'0 0.0
2017-Oct-16 06:00N 54°18' W 130°21'0 0.0
2017-Oct-16 05:30N 54°18' W 130°21'0 0.0
2017-Oct-16 05:00N 54°18' W 130°21'0 0.0
2017-Oct-16 04:30N 54°18' W 130°21'0 0.0
2017-Oct-16 04:00N 54°18' W 130°21'0 0.0
2017-Oct-16 03:29N 54°18' W 130°21'0 0.0
2017-Oct-16 03:00N 54°18' W 130°21'0 0.0
2017-Oct-16 02:30N 54°18' W 130°21'0 0.0
2017-Oct-16 02:00N 54°18' W 130°21'0 0.0
2017-Oct-16 01:30N 54°18' W 130°21'0 0.0
2017-Oct-16 01:00N 54°18' W 130°21'0 0.0
2017-Oct-16 00:30N 54°18' W 130°21'0 0.0
2017-Oct-16 00:00N 54°18' W 130°21'0 0.0
2017-Oct-15 23:30N 54°18' W 130°21'0 0.0
2017-Oct-15 23:00N 54°18' W 130°21'0 0.0
2017-Oct-15 22:30N 54°18' W 130°21'0 0.0
2017-Oct-15 21:58N 54°18' W 130°21'0 0.0
2017-Oct-15 21:30N 54°18' W 130°21'0 0.0
2017-Oct-15 21:00N 54°18' W 130°21'0 0.0
2017-Oct-15 20:30N 54°18' W 130°21'0 0.0
2017-Oct-15 20:00N 54°18' W 130°21'0 0.0
2017-Oct-15 19:30N 54°18' W 130°21'0 0.0
2017-Oct-15 19:00N 54°18' W 130°21'0 0.0
2017-Oct-15 18:30N 54°18' W 130°21'0 0.0
2017-Oct-15 18:00N 54°18' W 130°21'0 0.0
2017-Oct-15 17:30N 54°18' W 130°21'0 0.0
2017-Oct-15 17:00N 54°18' W 130°21'0 0.0
2017-Oct-15 16:30N 54°18' W 130°21'0 0.0
2017-Oct-15 16:00N 54°18' W 130°21'0 0.0
2017-Oct-15 15:30N 54°18' W 130°21'0 0.0
2017-Oct-15 15:00N 54°18' W 130°21'0 0.0
2017-Oct-15 14:00N 54°18' W 130°21'0 0.0
2017-Oct-15 13:30N 54°18' W 130°21'0 0.0
2017-Oct-15 13:00N 54°18' W 130°21'0 0.0
2017-Oct-15 12:30N 54°18' W 130°21'0 0.0
2017-Oct-15 12:00N 54°18' W 130°21'0 0.0
2017-Oct-15 11:30N 54°18' W 130°21'0 0.0
2017-Oct-15 11:00N 54°18' W 130°21'0 0.0
2017-Oct-15 10:30N 54°18' W 130°21'0 0.0
2017-Oct-15 10:00N 54°18' W 130°21'0 0.0
2017-Oct-15 09:30N 54°18' W 130°21'0 0.0
2017-Oct-15 09:00N 54°18' W 130°21'0 0.0
2017-Oct-15 08:30N 54°18' W 130°21'0 0.0
2017-Oct-15 08:00N 54°18' W 130°21'0 0.0
2017-Oct-15 07:31N 54°18' W 130°21'0 0.0
2017-Oct-15 07:00N 54°18' W 130°21'0 0.0
2017-Oct-15 06:30N 54°18' W 130°21'0 0.0
2017-Oct-15 06:00N 54°18' W 130°21'0 0.0
2017-Oct-15 05:30N 54°18' W 130°21'0 0.0
2017-Oct-15 05:00N 54°18' W 130°21'0 0.0
2017-Oct-15 04:30N 54°18' W 130°21'0 0.0
2017-Oct-15 04:00N 54°18' W 130°21'0 0.0
2017-Oct-15 03:30N 54°18' W 130°21'0 0.0
2017-Oct-15 03:00N 54°18' W 130°21'0 0.0
2017-Oct-15 02:30N 54°18' W 130°21'0 0.0
2017-Oct-15 02:00N 54°18' W 130°21'0 0.0
2017-Oct-15 01:30N 54°18' W 130°21'0 0.0
2017-Oct-15 01:00N 54°18' W 130°21'0 0.0
2017-Oct-15 00:30N 54°18' W 130°21'0 0.0
2017-Oct-15 00:00N 54°18' W 130°21'0 0.0
2017-Oct-14 23:30N 54°18' W 130°21'0 0.0
2017-Oct-14 23:00N 54°18' W 130°21'0 0.0
2017-Oct-14 22:30N 54°18' W 130°21'0 0.0
2017-Oct-14 22:00N 54°18' W 130°21'0 0.0
2017-Oct-14 21:30N 54°18' W 130°21'0 0.0
2017-Oct-14 21:00N 54°18' W 130°21'0 0.0
2017-Oct-14 20:30N 54°18' W 130°21'0 0.0
2017-Oct-14 20:00N 54°18' W 130°21'0 0.0
2017-Oct-14 19:30N 54°18' W 130°21'0 0.0
2017-Oct-14 19:00N 54°18' W 130°21'0 0.0
2017-Oct-14 18:30N 54°18' W 130°21'0 0.0
2017-Oct-14 18:00N 54°18' W 130°21'0 0.0
2017-Oct-14 17:30N 54°18' W 130°21'0 0.0
2017-Oct-14 17:00N 54°18' W 130°21'0 0.0
2017-Oct-14 16:30N 54°18' W 130°21'0 0.0
2017-Oct-14 16:00N 54°18' W 130°21'0 0.0
2017-Oct-14 15:30N 54°18' W 130°21'0 0.0
2017-Oct-14 14:58N 54°18' W 130°21'0 0.0
2017-Oct-14 14:30N 54°18' W 130°21'0 0.0
2017-Oct-14 14:00N 54°18' W 130°21'0 0.0
2017-Oct-14 13:30N 54°18' W 130°21'0 0.0
2017-Oct-14 13:00N 54°18' W 130°21'0 0.0
2017-Oct-14 12:30N 54°18' W 130°21'0 0.0
2017-Oct-14 12:00N 54°18' W 130°21'0 0.0
2017-Oct-14 11:30N 54°18' W 130°21'0 0.0
2017-Oct-14 11:00N 54°18' W 130°21'0 0.0
2017-Oct-14 10:30N 54°18' W 130°21'0 0.0
2017-Oct-14 10:00N 54°18' W 130°21'0 0.0
2017-Oct-14 09:30N 54°18' W 130°21'0 0.0
2017-Oct-14 09:00N 54°18' W 130°21'0 0.0
2017-Oct-14 08:30N 54°18' W 130°21'0 0.0
2017-Oct-14 08:00N 54°18' W 130°21'0 0.0
2017-Oct-14 07:29N 54°18' W 130°21'0 0.0
2017-Oct-14 06:59N 54°18' W 130°21'0 0.0
2017-Oct-14 06:30N 54°18' W 130°21'0 0.0
2017-Oct-14 06:00N 54°18' W 130°21'0 0.0
2017-Oct-14 05:30N 54°18' W 130°21'0 0.0
2017-Oct-14 05:00N 54°18' W 130°21'0 0.0
2017-Oct-14 04:28N 54°18' W 130°21'0 0.0
2017-Oct-14 04:00N 54°18' W 130°21'0 0.0
2017-Oct-14 03:30N 54°18' W 130°21'0 0.0
2017-Oct-14 03:00N 54°18' W 130°21'0 0.0
2017-Oct-14 02:30N 54°18' W 130°21'0 0.0
2017-Oct-14 02:00N 54°18' W 130°21'0 0.0
2017-Oct-14 01:30N 54°18' W 130°21'0 0.0
2017-Oct-14 00:58N 54°18' W 130°21'0 0.0
2017-Oct-14 00:30N 54°18' W 130°21'0 0.0
2017-Oct-13 23:59N 54°18' W 130°21'0 0.0
2017-Oct-13 23:29N 54°18' W 130°21'0 0.0
2017-Oct-13 23:00N 54°18' W 130°21'0 0.0
2017-Oct-13 22:30N 54°18' W 130°21'0 0.0
2017-Oct-13 22:00N 54°18' W 130°21'0 0.0
2017-Oct-13 21:01N 54°18' W 130°21'0 0.1
2017-Oct-13 20:58N 54°18' W 130°21'0 0.0
2017-Oct-13 19:10N 54°18' W 130°21'0 0.0
2017-Oct-13 19:00N 54°18' W 130°21'0 0.0
2017-Oct-13 18:29N 54°18' W 130°21'0 0.0
2017-Oct-13 17:56N 54°18' W 130°21'0 0.0
2017-Oct-13 17:29N 54°18' W 130°21'0 0.0
2017-Oct-13 17:00N 54°18' W 130°21'0 0.0
2017-Oct-13 16:29N 54°18' W 130°21'0 0.0
2017-Oct-13 16:00N 54°18' W 130°21'0 0.0
2017-Oct-13 15:30N 54°18' W 130°21'0 0.0
2017-Oct-13 14:58N 54°18' W 130°21'0 0.0
2017-Oct-13 14:30N 54°18' W 130°21'0 0.0
2017-Oct-13 14:00N 54°18' W 130°21'0 0.0
2017-Oct-13 13:29N 54°18' W 130°21'0 0.0
2017-Oct-13 12:57N 54°18' W 130°21'0 0.0
2017-Oct-13 12:30N 54°18' W 130°21'0 0.0
2017-Oct-13 12:00N 54°18' W 130°21'0 0.0
2017-Oct-13 11:27N 54°18' W 130°21'0 0.0
2017-Oct-13 11:00N 54°18' W 130°21'0 0.0
2017-Oct-13 10:30N 54°18' W 130°21'0 0.0
2017-Oct-13 10:00N 54°18' W 130°21'0 0.0
2017-Oct-13 09:30N 54°18' W 130°21'0 0.0
2017-Oct-13 09:00N 54°18' W 130°21'0 0.0
2017-Oct-13 08:30N 54°18' W 130°21'0 0.0
2017-Oct-13 07:59N 54°18' W 130°21'0 0.0
2017-Oct-13 05:27N 54°18' W 130°21'0 0.0
2017-Oct-13 04:54N 54°18' W 130°21'0 0.0
2017-Oct-13 04:30N 54°18' W 130°21'0 0.0
2017-Oct-13 04:00N 54°18' W 130°21'0 0.0
2017-Oct-13 03:21N 54°18' W 130°21'0 0.0
2017-Oct-13 02:47N 54°18' W 130°21'0 0.0
2017-Oct-13 02:30N 54°18' W 130°21'0 0.0
2017-Oct-13 02:00N 54°18' W 130°21'0 0.0
2017-Oct-13 01:29N 54°18' W 130°21'0 0.0
2017-Oct-13 01:00N 54°18' W 130°21'0 0.0
2017-Oct-13 00:30N 54°18' W 130°21'0 0.0
2017-Oct-13 00:00N 54°18' W 130°21'0 0.0
2017-Oct-12 23:30N 54°18' W 130°21'0 0.0
2017-Oct-12 23:00N 54°18' W 130°21'0 0.0
2017-Oct-12 22:30N 54°18' W 130°21'0 0.0
2017-Oct-12 22:00N 54°18' W 130°21'0 0.0
2017-Oct-12 21:30N 54°18' W 130°21'0 0.0
2017-Oct-12 21:00N 54°18' W 130°21'0 0.0
2017-Oct-12 20:30N 54°18' W 130°21'0 0.0
2017-Oct-12 20:00N 54°18' W 130°21'0 0.0
2017-Oct-12 19:30N 54°18' W 130°21'0 0.0
2017-Oct-12 19:00N 54°18' W 130°21'0 0.0
2017-Oct-12 18:30N 54°18' W 130°21'0 0.0
2017-Oct-12 18:00N 54°18' W 130°21'0 0.0
2017-Oct-12 17:30N 54°18' W 130°21'0 0.0
2017-Oct-12 17:00N 54°18' W 130°21'0 0.0
2017-Oct-12 16:30N 54°18' W 130°21'0 0.0
2017-Oct-12 16:00N 54°18' W 130°21'0 0.0
2017-Oct-12 15:30N 54°18' W 130°21'0 0.0
2017-Oct-12 14:58N 54°18' W 130°21'0 0.0
2017-Oct-12 14:30N 54°18' W 130°21'0 0.0
2017-Oct-12 14:00N 54°18' W 130°21'0 0.0
2017-Oct-12 13:31N 54°18' W 130°21'0 0.0
2017-Oct-12 13:00N 54°18' W 130°21'0 0.0
2017-Oct-12 12:30N 54°18' W 130°21'0 0.0
2017-Oct-12 12:00N 54°18' W 130°21'0 0.0
2017-Oct-12 11:30N 54°18' W 130°21'0 0.0
2017-Oct-12 11:00N 54°18' W 130°21'0 0.0
2017-Oct-12 10:28N 54°18' W 130°21'0 0.0
2017-Oct-12 10:00N 54°18' W 130°21'0 0.0
2017-Oct-12 09:30N 54°18' W 130°21'0 0.0
2017-Oct-12 09:00N 54°18' W 130°21'0 0.0
2017-Oct-12 08:30N 54°18' W 130°21'0 0.0
2017-Oct-12 08:00N 54°18' W 130°21'0 0.0
2017-Oct-12 07:30N 54°18' W 130°21'0 0.0
2017-Oct-12 07:00N 54°18' W 130°21'0 0.0
2017-Oct-12 06:30N 54°18' W 130°21'0 0.0
2017-Oct-12 06:00N 54°18' W 130°21'0 0.0
2017-Oct-12 05:30N 54°18' W 130°21'0 0.0
2017-Oct-12 04:56N 54°18' W 130°21'0 0.0
2017-Oct-12 04:23N 54°18' W 130°21'0 0.0
2017-Oct-12 03:59N 54°18' W 130°21'0 0.0
2017-Oct-12 03:30N 54°18' W 130°21'0 0.0
2017-Oct-12 03:00N 54°18' W 130°21'0 0.0
2017-Oct-12 02:30N 54°18' W 130°21'0 0.0
2017-Oct-12 01:59N 54°18' W 130°21'0 0.0
2017-Oct-12 01:30N 54°18' W 130°21'0 0.0
2017-Oct-12 01:00N 54°18' W 130°21'0 0.0
2017-Oct-12 00:26N 54°18' W 130°21'0 0.0
2017-Oct-12 00:00N 54°18' W 130°21'0 0.0
2017-Oct-11 23:26N 54°18' W 130°21'0 0.0
2017-Oct-11 22:58N 54°18' W 130°21'0 0.0
2017-Oct-11 22:30N 54°18' W 130°21'0 0.0
2017-Oct-11 22:00N 54°18' W 130°21'0 0.0
2017-Oct-11 21:30N 54°18' W 130°21'0 0.0
2017-Oct-11 21:00N 54°18' W 130°21'0 0.0
2017-Oct-11 20:30N 54°18' W 130°21'0 0.0
2017-Oct-11 20:00N 54°18' W 130°21'0 0.0
2017-Oct-11 19:28N 54°18' W 130°21'0 0.0
2017-Oct-11 19:00N 54°18' W 130°21'0 0.0
2017-Oct-11 18:30N 54°18' W 130°21'0 0.0
2017-Oct-11 18:00N 54°18' W 130°21'0 0.0
2017-Oct-11 17:30N 54°18' W 130°21'0 0.0
2017-Oct-11 17:01N 54°18' W 130°21'0 0.0
2017-Oct-10 23:52N 54°18' W 130°21'0 0.0
2017-Oct-10 23:27N 54°18' W 130°21'0 0.0
2017-Oct-10 22:58N 54°18' W 130°21'0 0.0
2017-Oct-10 22:30N 54°18' W 130°21'0 0.0
2017-Oct-10 22:00N 54°18' W 130°21'0 0.0
2017-Oct-10 21:30N 54°18' W 130°21'0 0.0
2017-Oct-10 21:00N 54°18' W 130°21'0 0.0
2017-Oct-10 20:30N 54°18' W 130°21'0 0.0
2017-Oct-10 19:54N 54°18' W 130°21'0 0.0
2017-Oct-10 19:30N 54°18' W 130°21'0 0.0
2017-Oct-10 19:00N 54°18' W 130°21'0 0.0
2017-Oct-10 18:30N 54°18' W 130°21'0 0.0
2017-Oct-10 18:00N 54°18' W 130°21'0 0.0
2017-Oct-10 17:30N 54°18' W 130°21'0 0.0
2017-Oct-10 17:00N 54°18' W 130°21'0 0.1
2017-Oct-10 16:30N 54°18' W 130°21'0 0.1
2017-Oct-10 16:00N 54°18' W 130°21'0 0.0
2017-Oct-10 15:27N 54°18' W 130°21'0 0.0
2017-Oct-10 15:00N 54°18' W 130°21'0 0.0
2017-Oct-10 13:53N 54°18' W 130°21'0 0.0
2017-Oct-10 13:17N 54°18' W 130°21'0 0.0
2017-Oct-10 13:00N 54°18' W 130°21'0 0.0
2017-Oct-10 12:30N 54°18' W 130°21'0 0.0
2017-Oct-10 12:00N 54°18' W 130°21'0 0.0
2017-Oct-10 11:31N 54°18' W 130°21'0 0.0
2017-Oct-10 10:59N 54°18' W 130°21'0 0.0
2017-Oct-10 10:30N 54°18' W 130°21'0 0.0
2017-Oct-10 09:04N 54°18' W 130°21'0 0.0
2017-Oct-10 08:57N 54°18' W 130°21'0 0.0
2017-Oct-10 08:26N 54°18' W 130°21'0 0.0
2017-Oct-10 08:00N 54°18' W 130°21'0 0.0
2017-Oct-10 07:30N 54°18' W 130°21'  
Track history (hours):
 
Tides and Currents Weather Stations Pressure Air Temp Water Temp Dewpoint Dewpoint Depression Visibility Wind Speed Wind Dir Waves Ship Positions

Smit Clyde

Last reported at 2017-Oct-20 07:00 UTC. Time now 2017-Oct-20 07:16 UTC.
Position N 54°18' W 130°21'.

Length 28 m; draft 6 m.

Type: Towing. MMSI: 316011473.

Date/timePositionNaut miles runAvg speedWind from/ knotsBaromVisibWave heightAir tempDewpointWater temp
2017-Oct-20 07:00N 54°18' W 130°21'0 0.0
2017-Oct-20 06:29N 54°18' W 130°21'0 0.0
2017-Oct-20 06:00N 54°18' W 130°21'0 0.0
2017-Oct-20 05:29N 54°18' W 130°21'0 0.0
2017-Oct-20 05:00N 54°18' W 130°21'0 0.0
2017-Oct-20 04:30N 54°18' W 130°21'0 0.0
2017-Oct-20 04:00N 54°18' W 130°21'0 0.0
2017-Oct-20 03:30N 54°18' W 130°21'0 0.0
2017-Oct-20 03:00N 54°18' W 130°21'0 0.0
2017-Oct-20 02:30N 54°18' W 130°21'0 0.0
2017-Oct-20 02:00N 54°18' W 130°21'0 0.0
2017-Oct-20 01:30N 54°18' W 130°21'0 0.0
2017-Oct-20 01:00N 54°18' W 130°21'0 0.0
2017-Oct-20 00:30N 54°18' W 130°21'0 0.0
2017-Oct-20 00:00N 54°18' W 130°21'0 0.0
2017-Oct-19 23:30N 54°18' W 130°21'0 0.0
2017-Oct-19 23:00N 54°18' W 130°21'0 0.0
2017-Oct-19 22:30N 54°18' W 130°21'0 0.0
2017-Oct-19 21:59N 54°18' W 130°21'0 0.0
2017-Oct-19 21:31N 54°18' W 130°21'0 0.0
2017-Oct-19 20:58N 54°18' W 130°21'0 0.0
2017-Oct-19 20:30N 54°18' W 130°21'0 0.0
2017-Oct-19 19:59N 54°18' W 130°21'0 0.0
2017-Oct-19 19:30N 54°18' W 130°21'0 0.0
2017-Oct-19 19:00N 54°18' W 130°21'0 0.0
2017-Oct-19 18:30N 54°18' W 130°21'0 0.0
2017-Oct-19 18:00N 54°18' W 130°21'0 0.0
2017-Oct-19 17:30N 54°18' W 130°21'0 0.0
2017-Oct-19 17:00N 54°18' W 130°21'0 0.0
2017-Oct-19 16:30N 54°18' W 130°21'0 0.0
2017-Oct-19 16:00N 54°18' W 130°21'0 0.0
2017-Oct-19 15:30N 54°18' W 130°21'0 0.0
2017-Oct-19 15:00N 54°18' W 130°21'0 0.0
2017-Oct-19 14:30N 54°18' W 130°21'0 0.0
2017-Oct-19 14:00N 54°18' W 130°21'0 0.0
2017-Oct-19 13:30N 54°18' W 130°21'0 0.0
2017-Oct-19 13:00N 54°18' W 130°21'0 0.0
2017-Oct-19 12:30N 54°18' W 130°21'0 0.0
2017-Oct-19 12:00N 54°18' W 130°21'0 0.0
2017-Oct-19 11:30N 54°18' W 130°21'0 0.0
2017-Oct-19 11:00N 54°18' W 130°21'0 0.0
2017-Oct-19 10:30N 54°18' W 130°21'0 0.0
2017-Oct-19 10:00N 54°18' W 130°21'0 0.0
2017-Oct-19 09:30N 54°18' W 130°21'0 0.0
2017-Oct-19 09:00N 54°18' W 130°21'0 0.0
2017-Oct-19 08:30N 54°18' W 130°21'0 0.0
2017-Oct-19 08:00N 54°18' W 130°21'0 0.0
2017-Oct-19 07:30N 54°18' W 130°21'0 0.0
2017-Oct-19 07:00N 54°18' W 130°21'0 0.0
2017-Oct-19 06:30N 54°18' W 130°21'0 0.0
2017-Oct-19 06:00N 54°18' W 130°21'0 0.0
2017-Oct-19 05:28N 54°18' W 130°21'0 0.0
2017-Oct-19 05:00N 54°18' W 130°21'0 0.0
2017-Oct-19 04:30N 54°18' W 130°21'0 0.0
2017-Oct-19 04:00N 54°18' W 130°21'0 0.0
2017-Oct-19 03:30N 54°18' W 130°21'0 0.0
2017-Oct-19 03:00N 54°18' W 130°21'0 0.0
2017-Oct-19 02:30N 54°18' W 130°21'0 0.0
2017-Oct-19 02:00N 54°18' W 130°21'0 0.0
2017-Oct-19 01:30N 54°18' W 130°21'0 0.0
2017-Oct-19 01:00N 54°18' W 130°21'0 0.0
2017-Oct-19 00:30N 54°18' W 130°21'0 0.0
2017-Oct-19 00:00N 54°18' W 130°21'0 0.0
2017-Oct-18 23:30N 54°18' W 130°21'0 0.0
2017-Oct-18 23:00N 54°18' W 130°21'0 0.0
2017-Oct-18 22:30N 54°18' W 130°21'0 0.6
2017-Oct-18 22:00N 54°17' W 130°22'4 7.1
2017-Oct-18 21:31N 54°14' W 130°22'2 4.1
2017-Oct-18 21:00N 54°12' W 130°23'5 9.8
2017-Oct-18 20:30N 54°17' W 130°22'1 1.8
2017-Oct-18 20:00N 54°18' W 130°21'0 0.0
2017-Oct-18 19:29N 54°18' W 130°21'0 0.0
2017-Oct-18 19:00N 54°18' W 130°21'0 0.0
2017-Oct-18 18:30N 54°18' W 130°21'0 0.0
2017-Oct-18 18:00N 54°18' W 130°21'0 0.0
2017-Oct-18 17:30N 54°18' W 130°21'0 0.0
2017-Oct-18 17:00N 54°18' W 130°21'0 0.0
2017-Oct-18 16:30N 54°18' W 130°21'0 0.0
2017-Oct-18 16:00N 54°18' W 130°21'0 0.0
2017-Oct-18 15:30N 54°18' W 130°21'0 0.0
2017-Oct-18 15:00N 54°18' W 130°21'0 0.0
2017-Oct-18 14:00N 54°18' W 130°21'0 0.0
2017-Oct-18 13:29N 54°18' W 130°21'0 0.0
2017-Oct-18 13:00N 54°18' W 130°21'0 0.0
2017-Oct-18 12:30N 54°18' W 130°21'0 0.0
2017-Oct-18 12:00N 54°18' W 130°21'0 0.0
2017-Oct-18 11:30N 54°18' W 130°21'0 0.0
2017-Oct-18 11:00N 54°18' W 130°21'0 0.0
2017-Oct-18 10:30N 54°18' W 130°21'0 0.0
2017-Oct-18 10:00N 54°18' W 130°21'0 0.0
2017-Oct-18 09:30N 54°18' W 130°21'0 0.0
2017-Oct-18 09:00N 54°18' W 130°21'0 0.0
2017-Oct-18 08:30N 54°18' W 130°21'0 0.0
2017-Oct-18 08:00N 54°18' W 130°21'0 0.0
2017-Oct-18 07:29N 54°18' W 130°21'0 0.0
2017-Oct-18 07:00N 54°18' W 130°21'0 0.0
2017-Oct-18 06:30N 54°18' W 130°21'0 0.0
2017-Oct-18 06:00N 54°18' W 130°21'0 0.0
2017-Oct-18 05:30N 54°18' W 130°21'0 0.0
2017-Oct-18 05:00N 54°18' W 130°21'0 0.0
2017-Oct-18 04:30N 54°18' W 130°21'0 0.0
2017-Oct-18 04:00N 54°18' W 130°21'0 0.0
2017-Oct-18 03:30N 54°18' W 130°21'0 0.0
2017-Oct-18 03:00N 54°18' W 130°21'0 0.0
2017-Oct-18 02:30N 54°18' W 130°21'0 0.0
2017-Oct-18 02:00N 54°18' W 130°21'0 0.0
2017-Oct-18 01:30N 54°18' W 130°21'0 0.0
2017-Oct-18 01:00N 54°18' W 130°21'0 0.0
2017-Oct-18 00:29N 54°18' W 130°21'0 0.0
2017-Oct-18 00:00N 54°18' W 130°21'0 0.0
2017-Oct-17 23:30N 54°18' W 130°21'0 0.0
2017-Oct-17 23:00N 54°18' W 130°21'0 0.0
2017-Oct-17 22:30N 54°18' W 130°21'0 0.0
2017-Oct-17 22:00N 54°18' W 130°21'0 0.0
2017-Oct-17 21:30N 54°18' W 130°21'0 0.0
2017-Oct-17 21:00N 54°18' W 130°21'0 0.0
2017-Oct-17 20:30N 54°18' W 130°21'0 0.0
2017-Oct-17 20:01N 54°18' W 130°21'0 0.0
2017-Oct-17 19:30N 54°18' W 130°21'0 0.0
2017-Oct-17 19:00N 54°18' W 130°21'0 0.0
2017-Oct-17 18:27N 54°18' W 130°21'0 0.0
2017-Oct-17 18:00N 54°18' W 130°21'0 0.0
2017-Oct-17 17:30N 54°18' W 130°21'0 0.0
2017-Oct-17 16:59N 54°18' W 130°21'0 0.0
2017-Oct-17 16:30N 54°18' W 130°21'0 0.0
2017-Oct-17 16:01N 54°18' W 130°21'0 0.0
2017-Oct-17 15:13N 54°18' W 130°21'0 0.0
2017-Oct-17 15:00N 54°18' W 130°21'0 0.0
2017-Oct-17 14:30N 54°18' W 130°21'0 0.0
2017-Oct-17 14:00N 54°18' W 130°21'0 0.0
2017-Oct-17 13:30N 54°18' W 130°21'0 0.0
2017-Oct-17 13:00N 54°18' W 130°21'0 0.0
2017-Oct-17 12:30N 54°18' W 130°21'0 0.0
2017-Oct-17 12:01N 54°18' W 130°21'0 0.0
2017-Oct-17 11:31N 54°18' W 130°21'0 0.0
2017-Oct-17 11:00N 54°18' W 130°21'0 0.0
2017-Oct-17 10:15N 54°18' W 130°21'0 0.0
2017-Oct-17 09:58N 54°18' W 130°21'0 0.0
2017-Oct-17 09:30N 54°18' W 130°21'0 0.0
2017-Oct-17 09:00N 54°18' W 130°21'0 0.0
2017-Oct-17 08:29N 54°18' W 130°21'0 0.0
2017-Oct-17 07:58N 54°18' W 130°21'0 0.0
2017-Oct-17 07:30N 54°18' W 130°21'0 0.0
2017-Oct-17 07:00N 54°18' W 130°21'0 0.0
2017-Oct-17 06:30N 54°18' W 130°21'0 0.0
2017-Oct-17 06:00N 54°18' W 130°21'0 0.0
2017-Oct-17 05:19N 54°18' W 130°21'0 0.0
2017-Oct-17 04:59N 54°18' W 130°21'0 0.0
2017-Oct-17 04:24N 54°18' W 130°21'0 0.0
2017-Oct-17 04:00N 54°18' W 130°21'0 0.0
2017-Oct-17 03:30N 54°18' W 130°21'0 0.0
2017-Oct-17 03:00N 54°18' W 130°21'0 0.0
2017-Oct-17 02:30N 54°18' W 130°21'0 0.0
2017-Oct-17 02:00N 54°18' W 130°21'0 0.0
2017-Oct-17 01:22N 54°18' W 130°21'0 0.0
2017-Oct-17 01:00N 54°18' W 130°21'0 0.0
2017-Oct-17 00:30N 54°18' W 130°21'0 0.0
2017-Oct-17 00:00N 54°18' W 130°21'0 0.0
2017-Oct-16 23:30N 54°18' W 130°21'0 0.0
2017-Oct-16 23:00N 54°18' W 130°21'0 0.0
2017-Oct-16 21:56N 54°18' W 130°21'0 0.0
2017-Oct-16 21:30N 54°18' W 130°21'0 0.0
2017-Oct-16 21:00N 54°18' W 130°21'0 0.0
2017-Oct-16 19:52N 54°18' W 130°21'0 0.0
2017-Oct-16 19:30N 54°18' W 130°21'0 0.0
2017-Oct-16 19:00N 54°18' W 130°21'0 0.0
2017-Oct-16 17:47N 54°18' W 130°21'0 0.0
2017-Oct-16 17:13N 54°18' W 130°21'0 0.0
2017-Oct-16 16:53N 54°18' W 130°21'0 0.1
2017-Oct-16 16:30N 54°18' W 130°21'0 0.1
2017-Oct-16 16:00N 54°18' W 130°21'0 0.0
2017-Oct-16 15:29N 54°18' W 130°21'0 0.0
2017-Oct-16 14:43N 54°18' W 130°21'0 0.0
2017-Oct-16 14:26N 54°18' W 130°21'0 0.0
2017-Oct-16 13:30N 54°18' W 130°21'0 0.0
2017-Oct-16 13:00N 54°18' W 130°21'0 0.0
2017-Oct-16 12:30N 54°18' W 130°21'0 0.0
2017-Oct-16 12:00N 54°18' W 130°21'0 0.0
2017-Oct-16 11:30N 54°18' W 130°21'0 0.0
2017-Oct-16 11:00N 54°18' W 130°21'0 0.0
2017-Oct-16 10:30N 54°18' W 130°21'0 0.0
2017-Oct-16 10:00N 54°18' W 130°21'0 0.0
2017-Oct-16 09:28N 54°18' W 130°21'0 0.0
2017-Oct-16 09:00N 54°18' W 130°21'0 0.0
2017-Oct-16 08:31N 54°18' W 130°21'0 0.0
2017-Oct-16 08:00N 54°18' W 130°21'0 0.0
2017-Oct-16 07:30N 54°18' W 130°21'0 0.0
2017-Oct-16 07:00N 54°18' W 130°21'0 0.0
2017-Oct-16 06:30N 54°18' W 130°21'0 0.0
2017-Oct-16 06:00N 54°18' W 130°21'0 0.0
2017-Oct-16 05:30N 54°18' W 130°21'0 0.0
2017-Oct-16 05:00N 54°18' W 130°21'0 0.0
2017-Oct-16 04:30N 54°18' W 130°21'0 0.0
2017-Oct-16 04:00N 54°18' W 130°21'0 0.0
2017-Oct-16 03:29N 54°18' W 130°21'0 0.0
2017-Oct-16 03:00N 54°18' W 130°21'0 0.0
2017-Oct-16 02:30N 54°18' W 130°21'0 0.0
2017-Oct-16 02:00N 54°18' W 130°21'0 0.0
2017-Oct-16 01:30N 54°18' W 130°21'0 0.0
2017-Oct-16 01:00N 54°18' W 130°21'0 0.0
2017-Oct-16 00:30N 54°18' W 130°21'0 0.0
2017-Oct-16 00:00N 54°18' W 130°21'0 0.0
2017-Oct-15 23:30N 54°18' W 130°21'0 0.0
2017-Oct-15 23:00N 54°18' W 130°21'0 0.0
2017-Oct-15 22:30N 54°18' W 130°21'0 0.0
2017-Oct-15 21:58N 54°18' W 130°21'0 0.0
2017-Oct-15 21:30N 54°18' W 130°21'0 0.0
2017-Oct-15 21:00N 54°18' W 130°21'0 0.0
2017-Oct-15 20:30N 54°18' W 130°21'0 0.0
2017-Oct-15 20:00N 54°18' W 130°21'0 0.0
2017-Oct-15 19:30N 54°18' W 130°21'0 0.0
2017-Oct-15 19:00N 54°18' W 130°21'0 0.0
2017-Oct-15 18:30N 54°18' W 130°21'0 0.0
2017-Oct-15 18:00N 54°18' W 130°21'0 0.0
2017-Oct-15 17:30N 54°18' W 130°21'0 0.0
2017-Oct-15 17:00N 54°18' W 130°21'0 0.0
2017-Oct-15 16:30N 54°18' W 130°21'0 0.0
2017-Oct-15 16:00N 54°18' W 130°21'0 0.0
2017-Oct-15 15:30N 54°18' W 130°21'0 0.0
2017-Oct-15 15:00N 54°18' W 130°21'0 0.0
2017-Oct-15 14:00N 54°18' W 130°21'0 0.0
2017-Oct-15 13:30N 54°18' W 130°21'0 0.0
2017-Oct-15 13:00N 54°18' W 130°21'0 0.0
2017-Oct-15 12:30N 54°18' W 130°21'0 0.0
2017-Oct-15 12:00N 54°18' W 130°21'0 0.0
2017-Oct-15 11:30N 54°18' W 130°21'0 0.0
2017-Oct-15 11:00N 54°18' W 130°21'0 0.0
2017-Oct-15 10:30N 54°18' W 130°21'0 0.0
2017-Oct-15 10:00N 54°18' W 130°21'0 0.0
2017-Oct-15 09:30N 54°18' W 130°21'0 0.0
2017-Oct-15 09:00N 54°18' W 130°21'0 0.0
2017-Oct-15 08:30N 54°18' W 130°21'0 0.0
2017-Oct-15 08:00N 54°18' W 130°21'0 0.0
2017-Oct-15 07:31N 54°18' W 130°21'0 0.0
2017-Oct-15 07:00N 54°18' W 130°21'0 0.0
2017-Oct-15 06:30N 54°18' W 130°21'0 0.0
2017-Oct-15 06:00N 54°18' W 130°21'0 0.0
2017-Oct-15 05:30N 54°18' W 130°21'0 0.0
2017-Oct-15 05:00N 54°18' W 130°21'0 0.0
2017-Oct-15 04:30N 54°18' W 130°21'0 0.0
2017-Oct-15 04:00N 54°18' W 130°21'0 0.0
2017-Oct-15 03:30N 54°18' W 130°21'0 0.0
2017-Oct-15 03:00N 54°18' W 130°21'0 0.0
2017-Oct-15 02:30N 54°18' W 130°21'0 0.0
2017-Oct-15 02:00N 54°18' W 130°21'0 0.0
2017-Oct-15 01:30N 54°18' W 130°21'0 0.0
2017-Oct-15 01:00N 54°18' W 130°21'0 0.0
2017-Oct-15 00:30N 54°18' W 130°21'0 0.0
2017-Oct-15 00:00N 54°18' W 130°21'0 0.0
2017-Oct-14 23:30N 54°18' W 130°21'0 0.0
2017-Oct-14 23:00N 54°18' W 130°21'0 0.0
2017-Oct-14 22:30N 54°18' W 130°21'0 0.0
2017-Oct-14 22:00N 54°18' W 130°21'0 0.0
2017-Oct-14 21:30N 54°18' W 130°21'0 0.0
2017-Oct-14 21:00N 54°18' W 130°21'0 0.0
2017-Oct-14 20:30N 54°18' W 130°21'0 0.0
2017-Oct-14 20:00N 54°18' W 130°21'0 0.0
2017-Oct-14 19:30N 54°18' W 130°21'0 0.0
2017-Oct-14 19:00N 54°18' W 130°21'0 0.0
2017-Oct-14 18:30N 54°18' W 130°21'0 0.0
2017-Oct-14 18:00N 54°18' W 130°21'0 0.0
2017-Oct-14 17:30N 54°18' W 130°21'0 0.0
2017-Oct-14 17:00N 54°18' W 130°21'0 0.0
2017-Oct-14 16:30N 54°18' W 130°21'0 0.0
2017-Oct-14 16:00N 54°18' W 130°21'0 0.0
2017-Oct-14 15:30N 54°18' W 130°21'0 0.0
2017-Oct-14 14:58N 54°18' W 130°21'0 0.0
2017-Oct-14 14:30N 54°18' W 130°21'0 0.0
2017-Oct-14 14:00N 54°18' W 130°21'0 0.0
2017-Oct-14 13:30N 54°18' W 130°21'0 0.0
2017-Oct-14 13:00N 54°18' W 130°21'0 0.0
2017-Oct-14 12:30N 54°18' W 130°21'0 0.0
2017-Oct-14 12:00N 54°18' W 130°21'0 0.0
2017-Oct-14 11:30N 54°18' W 130°21'0 0.0
2017-Oct-14 11:00N 54°18' W 130°21'0 0.0
2017-Oct-14 10:30N 54°18' W 130°21'0 0.0
2017-Oct-14 10:00N 54°18' W 130°21'0 0.0
2017-Oct-14 09:30N 54°18' W 130°21'0 0.0
2017-Oct-14 09:00N 54°18' W 130°21'0 0.0
2017-Oct-14 08:30N 54°18' W 130°21'0 0.0
2017-Oct-14 08:00N 54°18' W 130°21'0 0.0
2017-Oct-14 07:29N 54°18' W 130°21'0 0.0
2017-Oct-14 06:59N 54°18' W 130°21'0 0.0
2017-Oct-14 06:30N 54°18' W 130°21'0 0.0
2017-Oct-14 06:00N 54°18' W 130°21'0 0.0
2017-Oct-14 05:30N 54°18' W 130°21'0 0.0
2017-Oct-14 05:00N 54°18' W 130°21'0 0.0
2017-Oct-14 04:28N 54°18' W 130°21'0 0.0
2017-Oct-14 04:00N 54°18' W 130°21'0 0.0
2017-Oct-14 03:30N 54°18' W 130°21'0 0.0
2017-Oct-14 03:00N 54°18' W 130°21'0 0.0
2017-Oct-14 02:30N 54°18' W 130°21'0 0.0
2017-Oct-14 02:00N 54°18' W 130°21'0 0.0
2017-Oct-14 01:30N 54°18' W 130°21'0 0.0
2017-Oct-14 00:58N 54°18' W 130°21'0 0.0
2017-Oct-14 00:30N 54°18' W 130°21'0 0.0
2017-Oct-13 23:59N 54°18' W 130°21'0 0.0
2017-Oct-13 23:29N 54°18' W 130°21'0 0.0
2017-Oct-13 23:00N 54°18' W 130°21'0 0.0
2017-Oct-13 22:30N 54°18' W 130°21'0 0.0
2017-Oct-13 22:00N 54°18' W 130°21'0 0.0
2017-Oct-13 21:01N 54°18' W 130°21'0 0.1
2017-Oct-13 20:58N 54°18' W 130°21'0 0.0
2017-Oct-13 19:10N 54°18' W 130°21'0 0.0
2017-Oct-13 19:00N 54°18' W 130°21'0 0.0
2017-Oct-13 18:29N 54°18' W 130°21'0 0.0
2017-Oct-13 17:56N 54°18' W 130°21'0 0.0
2017-Oct-13 17:29N 54°18' W 130°21'0 0.0
2017-Oct-13 17:00N 54°18' W 130°21'0 0.0
2017-Oct-13 16:29N 54°18' W 130°21'0 0.0
2017-Oct-13 16:00N 54°18' W 130°21'0 0.0
2017-Oct-13 15:30N 54°18' W 130°21'0 0.0
2017-Oct-13 14:58N 54°18' W 130°21'0 0.0
2017-Oct-13 14:30N 54°18' W 130°21'0 0.0
2017-Oct-13 14:00N 54°18' W 130°21'0 0.0
2017-Oct-13 13:29N 54°18' W 130°21'0 0.0
2017-Oct-13 12:57N 54°18' W 130°21'0 0.0
2017-Oct-13 12:30N 54°18' W 130°21'0 0.0
2017-Oct-13 12:00N 54°18' W 130°21'0 0.0
2017-Oct-13 11:27N 54°18' W 130°21'0 0.0
2017-Oct-13 11:00N 54°18' W 130°21'0 0.0
2017-Oct-13 10:30N 54°18' W 130°21'0 0.0
2017-Oct-13 10:00N 54°18' W 130°21'0 0.0
2017-Oct-13 09:30N 54°18' W 130°21'0 0.0
2017-Oct-13 09:00N 54°18' W 130°21'0 0.0
2017-Oct-13 08:30N 54°18' W 130°21'0 0.0
2017-Oct-13 07:59N 54°18' W 130°21'0 0.0
2017-Oct-13 05:27N 54°18' W 130°21'0 0.0
2017-Oct-13 04:54N 54°18' W 130°21'0 0.0
2017-Oct-13 04:30N 54°18' W 130°21'0 0.0
2017-Oct-13 04:00N 54°18' W 130°21'0 0.0
2017-Oct-13 03:21N 54°18' W 130°21'0 0.0
2017-Oct-13 02:47N 54°18' W 130°21'0 0.0
2017-Oct-13 02:30N 54°18' W 130°21'0 0.0
2017-Oct-13 02:00N 54°18' W 130°21'0 0.0
2017-Oct-13 01:29N 54°18' W 130°21'0 0.0
2017-Oct-13 01:00N 54°18' W 130°21'0 0.0
2017-Oct-13 00:30N 54°18' W 130°21'0 0.0
2017-Oct-13 00:00N 54°18' W 130°21'0 0.0
2017-Oct-12 23:30N 54°18' W 130°21'0 0.0
2017-Oct-12 23:00N 54°18' W 130°21'0 0.0
2017-Oct-12 22:30N 54°18' W 130°21'0 0.0
2017-Oct-12 22:00N 54°18' W 130°21'0 0.0
2017-Oct-12 21:30N 54°18' W 130°21'0 0.0
2017-Oct-12 21:00N 54°18' W 130°21'0 0.0
2017-Oct-12 20:30N 54°18' W 130°21'0 0.0
2017-Oct-12 20:00N 54°18' W 130°21'0 0.0
2017-Oct-12 19:30N 54°18' W 130°21'0 0.0
2017-Oct-12 19:00N 54°18' W 130°21'0 0.0
2017-Oct-12 18:30N 54°18' W 130°21'0 0.0
2017-Oct-12 18:00N 54°18' W 130°21'0 0.0
2017-Oct-12 17:30N 54°18' W 130°21'0 0.0
2017-Oct-12 17:00N 54°18' W 130°21'0 0.0
2017-Oct-12 16:30N 54°18' W 130°21'0 0.0
2017-Oct-12 16:00N 54°18' W 130°21'0 0.0
2017-Oct-12 15:30N 54°18' W 130°21'0 0.0
2017-Oct-12 14:58N 54°18' W 130°21'0 0.0
2017-Oct-12 14:30N 54°18' W 130°21'0 0.0
2017-Oct-12 14:00N 54°18' W 130°21'0 0.0
2017-Oct-12 13:31N 54°18' W 130°21'0 0.0
2017-Oct-12 13:00N 54°18' W 130°21'0 0.0
2017-Oct-12 12:30N 54°18' W 130°21'0 0.0
2017-Oct-12 12:00N 54°18' W 130°21'0 0.0
2017-Oct-12 11:30N 54°18' W 130°21'0 0.0
2017-Oct-12 11:00N 54°18' W 130°21'0 0.0
2017-Oct-12 10:28N 54°18' W 130°21'0 0.0
2017-Oct-12 10:00N 54°18' W 130°21'0 0.0
2017-Oct-12 09:30N 54°18' W 130°21'0 0.0
2017-Oct-12 09:00N 54°18' W 130°21'0 0.0
2017-Oct-12 08:30N 54°18' W 130°21'0 0.0
2017-Oct-12 08:00N 54°18' W 130°21'0 0.0
2017-Oct-12 07:30N 54°18' W 130°21'0 0.0
2017-Oct-12 07:00N 54°18' W 130°21'0 0.0
2017-Oct-12 06:30N 54°18' W 130°21'0 0.0
2017-Oct-12 06:00N 54°18' W 130°21'0 0.0
2017-Oct-12 05:30N 54°18' W 130°21'0 0.0
2017-Oct-12 04:56N 54°18' W 130°21'0 0.0
2017-Oct-12 04:23N 54°18' W 130°21'0 0.0
2017-Oct-12 03:59N 54°18' W 130°21'0 0.0
2017-Oct-12 03:30N 54°18' W 130°21'0 0.0
2017-Oct-12 03:00N 54°18' W 130°21'0 0.0
2017-Oct-12 02:30N 54°18' W 130°21'0 0.0
2017-Oct-12 01:59N 54°18' W 130°21'0 0.0
2017-Oct-12 01:30N 54°18' W 130°21'0 0.0
2017-Oct-12 01:00N 54°18' W 130°21'0 0.0
2017-Oct-12 00:26N 54°18' W 130°21'0 0.0
2017-Oct-12 00:00N 54°18' W 130°21'0 0.0
2017-Oct-11 23:26N 54°18' W 130°21'0 0.0
2017-Oct-11 22:58N 54°18' W 130°21'0 0.0
2017-Oct-11 22:30N 54°18' W 130°21'0 0.0
2017-Oct-11 22:00N 54°18' W 130°21'0 0.0
2017-Oct-11 21:30N 54°18' W 130°21'0 0.0
2017-Oct-11 21:00N 54°18' W 130°21'0 0.0
2017-Oct-11 20:30N 54°18' W 130°21'0 0.0
2017-Oct-11 20:00N 54°18' W 130°21'0 0.0
2017-Oct-11 19:28N 54°18' W 130°21'0 0.0
2017-Oct-11 19:00N 54°18' W 130°21'0 0.0
2017-Oct-11 18:30N 54°18' W 130°21'0 0.0
2017-Oct-11 18:00N 54°18' W 130°21'0 0.0
2017-Oct-11 17:30N 54°18' W 130°21'0 0.0
2017-Oct-11 17:01N 54°18' W 130°21'0 0.0
2017-Oct-10 23:52N 54°18' W 130°21'0 0.0
2017-Oct-10 23:27N 54°18' W 130°21'0 0.0
2017-Oct-10 22:58N 54°18' W 130°21'0 0.0
2017-Oct-10 22:30N 54°18' W 130°21'0 0.0
2017-Oct-10 22:00N 54°18' W 130°21'0 0.0
2017-Oct-10 21:30N 54°18' W 130°21'0 0.0
2017-Oct-10 21:00N 54°18' W 130°21'0 0.0
2017-Oct-10 20:30N 54°18' W 130°21'0 0.0
2017-Oct-10 19:54N 54°18' W 130°21'0 0.0
2017-Oct-10 19:30N 54°18' W 130°21'0 0.0
2017-Oct-10 19:00N 54°18' W 130°21'0 0.0
2017-Oct-10 18:30N 54°18' W 130°21'0 0.0
2017-Oct-10 18:00N 54°18' W 130°21'0 0.0
2017-Oct-10 17:30N 54°18' W 130°21'0 0.0
2017-Oct-10 17:00N 54°18' W 130°21'0 0.1
2017-Oct-10 16:30N 54°18' W 130°21'0 0.1
2017-Oct-10 16:00N 54°18' W 130°21'0 0.0
2017-Oct-10 15:27N 54°18' W 130°21'0 0.0
2017-Oct-10 15:00N 54°18' W 130°21'0 0.0
2017-Oct-10 13:53N 54°18' W 130°21'0 0.0
2017-Oct-10 13:17N 54°18' W 130°21'0 0.0
2017-Oct-10 13:00N 54°18' W 130°21'0 0.0
2017-Oct-10 12:30N 54°18' W 130°21'0 0.0
2017-Oct-10 12:00N 54°18' W 130°21'0 0.0
2017-Oct-10 11:31N 54°18' W 130°21'0 0.0
2017-Oct-10 10:59N 54°18' W 130°21'0 0.0
2017-Oct-10 10:30N 54°18' W 130°21'0 0.0
2017-Oct-10 09:04N 54°18' W 130°21'0 0.0
2017-Oct-10 08:57N 54°18' W 130°21'0 0.0
2017-Oct-10 08:26N 54°18' W 130°21'0 0.0
2017-Oct-10 08:00N 54°18' W 130°21'0 0.0
2017-Oct-10 07:30N 54°18' W 130°21'  

Dump ship's entire track history